createdAt,value
2017-11-13T00:01:26.630Z,100593.89
2017-11-13T00:03:29.921Z,100599.28
2017-11-13T00:05:33.244Z,100594.39
2017-11-13T00:07:36.542Z,100599.78
2017-11-13T00:09:39.837Z,100596.58
2017-11-13T00:11:43.150Z,100599.40
2017-11-13T00:13:46.475Z,100607.36
2017-11-13T00:15:49.765Z,100605.59
2017-11-13T00:17:53.103Z,100605.30
2017-11-13T00:19:56.443Z,100608.41
2017-11-13T00:21:59.746Z,100613.80
2017-11-13T00:24:03.066Z,100616.49
2017-11-13T00:26:07.790Z,100624.66
2017-11-13T00:28:11.449Z,100626.44
2017-11-13T00:30:14.758Z,100631.40
2017-11-13T00:32:18.132Z,100630.47
2017-11-13T00:34:21.518Z,100629.55
2017-11-13T00:36:24.837Z,100632.75
2017-11-13T00:38:28.132Z,100635.44
2017-11-13T00:40:31.430Z,100649.00
2017-11-13T00:42:34.750Z,100640.33
2017-11-13T00:44:38.121Z,100640.41
2017-11-13T00:46:41.409Z,100643.61
2017-11-13T00:48:44.838Z,100646.81
2017-11-13T00:50:48.241Z,100649.42
2017-11-13T00:52:51.525Z,100658.44
2017-11-13T00:54:54.885Z,100659.78
2017-11-13T00:56:58.389Z,100657.17
2017-11-13T00:59:01.700Z,100666.61
2017-11-13T01:01:05.089Z,100665.27
2017-11-13T01:03:08.381Z,100674.27
2017-11-13T01:05:11.673Z,100681.42
2017-11-13T01:07:14.991Z,100677.89
2017-11-13T01:09:18.354Z,100682.36
2017-11-13T01:11:21.646Z,100684.63
2017-11-13T01:13:25.040Z,100677.89
2017-11-13T01:15:28.433Z,100683.82
2017-11-13T01:17:31.798Z,100685.98
2017-11-13T01:19:35.231Z,100688.28
2017-11-13T01:21:38.502Z,100695.11
2017-11-13T01:23:41.794Z,100699.57
2017-11-13T01:25:45.181Z,100699.57
2017-11-13T01:27:49.373Z,100695.11
2017-11-13T01:29:52.681Z,100697.38
2017-11-13T01:31:55.987Z,100698.73
2017-11-13T01:33:59.360Z,100699.15
2017-11-13T01:36:02.653Z,100701.42
2017-11-13T01:38:06.046Z,100703.19
2017-11-13T01:40:09.437Z,100708.58
2017-11-13T01:42:12.728Z,100715.41
2017-11-13T01:44:16.047Z,100716.33
2017-11-13T01:46:19.336Z,100717.09
2017-11-13T01:48:22.693Z,100722.56
2017-11-13T01:50:26.133Z,100723.91
2017-11-13T01:52:29.416Z,100722.98
2017-11-13T01:54:32.710Z,100732.50
2017-11-13T01:56:36.125Z,100736.03
2017-11-13T01:58:39.522Z,100736.55
2017-11-13T02:00:42.842Z,100734.27
2017-11-13T02:02:46.158Z,100735.61
2017-11-13T02:04:49.485Z,100736.55
2017-11-13T02:06:52.776Z,100737.89
2017-11-13T02:08:56.089Z,100735.19
2017-11-13T02:10:59.393Z,100736.12
2017-11-13T02:13:02.688Z,100741.51
2017-11-13T02:15:06.002Z,100752.20
2017-11-13T02:17:09.289Z,100748.66
2017-11-13T02:19:12.586Z,100752.80
2017-11-13T02:21:15.973Z,100757.25
2017-11-13T02:23:19.254Z,100761.80
2017-11-13T02:25:22.560Z,100758.69
2017-11-13T02:27:25.874Z,100762.23
2017-11-13T02:29:29.176Z,100759.11
2017-11-13T02:31:32.466Z,100757.34
2017-11-13T02:33:35.781Z,100770.42
2017-11-13T02:35:39.169Z,100780.67
2017-11-13T02:37:43.363Z,100781.59
2017-11-13T02:39:46.735Z,100790.09
2017-11-13T02:41:50.001Z,100791.56
2017-11-13T02:43:53.290Z,100796.53
2017-11-13T02:45:56.611Z,100800.58
2017-11-13T02:47:59.946Z,100803.27
2017-11-13T02:50:03.223Z,100807.39
2017-11-13T02:52:06.572Z,100806.89
2017-11-13T02:54:09.863Z,100812.78
2017-11-13T02:56:13.155Z,100814.98
2017-11-13T02:58:16.474Z,100812.78
2017-11-13T03:00:19.834Z,100812.78
2017-11-13T03:02:23.165Z,100809.59
2017-11-13T03:04:26.552Z,100817.25
2017-11-13T03:06:29.842Z,100823.56
2017-11-13T03:08:33.140Z,100829.38
2017-11-13T03:10:36.456Z,100834.77
2017-11-13T03:12:39.747Z,100838.80
2017-11-13T03:14:43.107Z,100836.62
2017-11-13T03:16:46.418Z,100836.62
2017-11-13T03:18:50.732Z,100843.35
2017-11-13T03:20:54.089Z,100833.50
2017-11-13T03:22:57.405Z,100837.13
2017-11-13T03:25:00.713Z,100836.19
2017-11-13T03:27:04.069Z,100833.08
2017-11-13T03:29:07.423Z,100833.50
2017-11-13T03:31:10.751Z,100832.66
2017-11-13T03:33:14.133Z,100833.59
2017-11-13T03:35:17.454Z,100840.32
2017-11-13T03:37:20.821Z,100841.67
2017-11-13T03:39:24.114Z,100853.80
2017-11-13T03:41:27.427Z,100857.84
2017-11-13T03:43:30.789Z,100858.67
2017-11-13T03:45:34.082Z,100863.64
2017-11-13T03:47:37.433Z,100865.41
2017-11-13T03:49:41.097Z,100864.99
2017-11-13T03:51:44.454Z,100869.96
2017-11-13T03:53:47.775Z,100878.55
2017-11-13T03:55:51.082Z,100883.02
2017-11-13T03:57:54.375Z,100887.90
2017-11-13T03:59:57.694Z,100886.64
2017-11-13T04:02:01.071Z,100895.56
2017-11-13T04:04:04.361Z,100898.25
2017-11-13T04:06:07.674Z,100901.87
2017-11-13T04:08:10.973Z,100904.57
2017-11-13T04:10:14.371Z,100913.58
2017-11-13T04:12:17.685Z,100918.16
2017-11-13T04:14:20.977Z,100918.16
2017-11-13T04:16:24.273Z,100921.66
2017-11-13T04:18:27.593Z,100925.31
2017-11-13T04:20:30.881Z,100927.48
2017-11-13T04:22:34.212Z,100932.44
2017-11-13T04:24:37.602Z,100928.41
2017-11-13T04:26:40.898Z,100937.02
2017-11-13T04:28:44.195Z,100940.95
2017-11-13T04:30:47.512Z,100947.80
2017-11-13T04:32:50.799Z,100947.27
2017-11-13T04:34:54.133Z,100949.56
2017-11-13T04:36:57.509Z,100947.38
2017-11-13T04:39:00.802Z,100945.19
2017-11-13T04:41:04.099Z,100959.08
2017-11-13T04:43:07.404Z,100959.08
2017-11-13T04:45:10.718Z,100960.43
2017-11-13T04:47:14.010Z,100959.08
2017-11-13T04:49:17.327Z,100960.43
2017-11-13T04:51:20.623Z,100963.55
2017-11-13T04:53:23.921Z,100968.01
2017-11-13T04:55:27.245Z,100968.01
2017-11-13T04:57:30.534Z,100975.75
2017-11-13T04:59:33.825Z,100981.98
2017-11-13T05:01:37.183Z,100986.03
2017-11-13T05:03:40.464Z,100999.50
2017-11-13T05:05:43.766Z,100993.19
2017-11-13T05:07:47.083Z,101001.78
2017-11-13T05:09:50.378Z,101006.23
2017-11-13T05:11:54.793Z,101005.81
2017-11-13T05:13:58.165Z,101005.81
2017-11-13T05:16:02.049Z,101005.81
2017-11-13T05:18:05.342Z,101007.67
2017-11-13T05:20:08.670Z,101008.94
2017-11-13T05:22:11.967Z,101003.20
2017-11-13T05:24:15.265Z,101003.20
2017-11-13T05:26:18.584Z,101009.86
2017-11-13T05:28:21.882Z,101015.33
2017-11-13T05:30:25.182Z,101017.52
2017-11-13T05:32:28.505Z,101021.22
2017-11-13T05:34:31.859Z,101028.38
2017-11-13T05:36:35.151Z,101032.92
2017-11-13T05:38:38.472Z,101034.27
2017-11-13T05:40:41.771Z,101041.02
2017-11-13T05:42:45.065Z,101039.66
2017-11-13T05:44:48.447Z,101049.09
2017-11-13T05:46:51.758Z,101053.56
2017-11-13T05:48:55.046Z,101064.42
2017-11-13T05:50:58.418Z,101065.27
2017-11-13T05:53:01.800Z,101065.77
2017-11-13T05:55:05.096Z,101065.27
2017-11-13T05:57:08.406Z,101072.00
2017-11-13T05:59:11.778Z,101072.00
2017-11-13T06:01:15.090Z,101068.46
2017-11-13T06:03:18.457Z,101066.30
2017-11-13T06:05:21.826Z,101064.95
2017-11-13T06:07:25.143Z,101066.30
2017-11-13T06:09:28.535Z,101075.73
2017-11-13T06:11:31.842Z,101082.47
2017-11-13T06:13:35.142Z,101080.70
2017-11-13T06:15:38.511Z,101077.50
2017-11-13T06:17:41.836Z,101076.66
2017-11-13T06:19:45.190Z,101067.65
2017-11-13T06:21:48.503Z,101084.74
2017-11-13T06:23:51.878Z,101086.59
2017-11-13T06:25:55.193Z,101090.13
2017-11-13T06:27:58.522Z,101095.09
2017-11-13T06:30:01.863Z,101101.41
2017-11-13T06:32:05.247Z,101099.64
2017-11-13T06:34:08.618Z,101105.38
2017-11-13T06:36:11.923Z,101106.30
2017-11-13T06:38:15.218Z,101106.30
2017-11-13T06:40:18.526Z,101119.34
2017-11-13T06:42:21.821Z,101116.66
2017-11-13T06:44:25.117Z,101119.34
2017-11-13T06:46:28.479Z,101124.73
2017-11-13T06:48:31.812Z,101130.12
2017-11-13T06:50:35.096Z,101138.13
2017-11-13T06:52:38.434Z,101137.28
2017-11-13T06:54:41.745Z,101134.59
2017-11-13T06:56:45.125Z,101139.05
2017-11-13T06:58:48.436Z,101146.72
2017-11-13T07:00:51.759Z,101152.53
2017-11-13T07:02:55.084Z,101159.27
2017-11-13T07:04:58.400Z,101157.50
2017-11-13T07:07:01.955Z,101166.59
2017-11-13T07:09:05.328Z,101163.73
2017-11-13T07:11:08.648Z,101168.64
2017-11-13T07:13:11.942Z,101176.65
2017-11-13T07:15:15.315Z,101182.81
2017-11-13T07:17:18.681Z,101185.43
2017-11-13T07:19:22.044Z,101184.52
2017-11-13T07:21:26.287Z,101191.41
2017-11-13T07:23:29.712Z,101200.52
2017-11-13T07:25:32.997Z,101198.75
2017-11-13T07:27:36.293Z,101203.22
2017-11-13T07:29:39.619Z,101201.95
2017-11-13T07:31:42.970Z,101201.45
2017-11-13T07:33:46.262Z,101204.45
2017-11-13T07:35:49.673Z,101210.02
2017-11-13T07:37:52.961Z,101206.64
2017-11-13T07:39:56.253Z,101213.95
2017-11-13T07:41:59.625Z,101212.33
2017-11-13T07:44:02.922Z,101220.09
2017-11-13T07:46:06.326Z,101214.86
2017-11-13T07:48:09.659Z,101217.79
2017-11-13T07:50:12.990Z,101225.02
2017-11-13T07:52:16.289Z,101228.41
2017-11-13T07:54:19.601Z,101233.44
2017-11-13T07:56:22.942Z,101233.59
2017-11-13T07:58:26.234Z,101244.02
2017-11-13T08:00:30.357Z,101247.80
2017-11-13T08:02:33.690Z,101246.20
2017-11-13T08:04:37.047Z,101255.38
2017-11-13T08:06:40.366Z,101251.05
2017-11-13T08:08:43.676Z,101258.38
2017-11-13T08:10:47.001Z,101260.41
2017-11-13T08:12:50.329Z,101256.59
2017-11-13T08:14:53.625Z,101259.05
2017-11-13T08:16:56.954Z,101272.71
2017-11-13T08:19:00.286Z,101271.17
2017-11-13T08:21:03.578Z,101264.19
2017-11-13T08:23:06.908Z,101271.08
2017-11-13T08:25:10.609Z,101269.66
2017-11-13T08:27:13.919Z,101270.73
2017-11-13T08:29:17.214Z,101279.47
2017-11-13T08:31:20.541Z,101278.81
2017-11-13T08:33:23.834Z,101275.92
2017-11-13T08:35:27.138Z,101281.16
2017-11-13T08:37:30.451Z,101287.12
2017-11-13T08:39:33.761Z,101290.66
2017-11-13T08:41:37.041Z,101294.09
2017-11-13T08:43:40.378Z,101299.75
2017-11-13T08:45:43.750Z,101298.20
2017-11-13T08:47:47.041Z,101303.44
2017-11-13T08:49:50.434Z,101298.78
2017-11-13T08:51:53.731Z,101304.02
2017-11-13T08:53:57.027Z,101301.16
2017-11-13T08:56:00.374Z,101298.69
2017-11-13T08:58:03.787Z,101301.30
2017-11-13T09:00:07.086Z,101300.69
2017-11-13T09:02:10.432Z,101305.92
2017-11-13T09:04:13.750Z,101310.73
2017-11-13T09:06:17.152Z,101312.73
2017-11-13T09:08:20.538Z,101313.08
2017-11-13T09:10:23.914Z,101312.88
2017-11-13T09:12:27.227Z,101321.23
2017-11-13T09:14:30.564Z,101325.67
2017-11-13T09:16:33.854Z,101323.66
2017-11-13T09:18:37.205Z,101318.18
2017-11-13T09:20:40.546Z,101330.55
2017-11-13T09:22:43.838Z,101331.39
2017-11-13T09:24:47.142Z,101330.70
2017-11-13T09:26:50.597Z,101335.94
2017-11-13T09:28:53.890Z,101347.46
2017-11-13T09:30:57.189Z,101340.13
2017-11-13T09:33:00.598Z,101337.35
2017-11-13T09:35:03.910Z,101344.83
2017-11-13T09:37:07.201Z,101344.59
2017-11-13T09:39:10.531Z,101349.98
2017-11-13T09:41:13.829Z,101352.99
2017-11-13T09:43:17.129Z,101355.53
2017-11-13T09:45:20.459Z,101359.00
2017-11-13T09:47:23.748Z,101354.41
2017-11-13T09:49:27.053Z,101360.66
2017-11-13T09:51:30.453Z,101363.19
2017-11-13T09:53:33.736Z,101360.84
2017-11-13T09:55:37.029Z,101366.97
2017-11-13T09:57:40.358Z,101368.66
2017-11-13T09:59:43.668Z,101372.63
2017-11-13T10:01:46.976Z,101371.50
2017-11-13T10:03:50.340Z,101372.77
2017-11-13T10:05:53.643Z,101371.77
2017-11-13T10:07:58.485Z,101373.11
2017-11-13T10:10:02.642Z,101378.91
2017-11-13T10:12:06.582Z,101382.02
2017-11-13T10:14:10.475Z,101380.09
2017-11-13T10:16:14.583Z,101378.23
2017-11-13T10:18:18.793Z,101378.16
2017-11-13T10:20:22.178Z,101373.18
2017-11-13T10:22:25.490Z,101383.39
2017-11-13T10:24:28.802Z,101378.84
2017-11-13T10:26:32.119Z,101380.11
2017-11-13T10:28:35.443Z,101389.47
2017-11-13T10:30:38.790Z,101394.25
2017-11-13T10:32:42.074Z,101394.59
2017-11-13T10:34:45.426Z,101392.24
2017-11-13T10:36:48.770Z,101395.75
2017-11-13T10:38:52.063Z,101395.25
2017-11-13T10:40:55.387Z,101395.59
2017-11-13T10:42:58.711Z,101397.28
2017-11-13T10:45:02.006Z,101395.94
2017-11-13T10:47:05.331Z,101400.30
2017-11-13T10:49:08.633Z,101402.91
2017-11-13T10:51:11.976Z,101398.70
2017-11-13T10:53:15.292Z,101398.78
2017-11-13T10:55:18.590Z,101404.61
2017-11-13T10:57:21.883Z,101410.84
2017-11-13T10:59:25.223Z,101416.14
2017-11-13T11:01:28.524Z,101406.61
2017-11-13T11:03:33.120Z,101410.16
2017-11-13T11:05:36.431Z,101419.60
2017-11-13T11:07:39.734Z,101416.73
2017-11-13T11:09:43.030Z,101415.78
2017-11-13T11:11:46.346Z,101415.89
2017-11-13T11:13:50.113Z,101419.75
2017-11-13T11:15:56.239Z,101419.67
2017-11-13T11:18:02.358Z,101419.25
2017-11-13T11:20:05.650Z,101419.67
2017-11-13T11:22:08.951Z,101429.46
2017-11-13T11:24:12.273Z,101418.16
2017-11-13T11:26:19.988Z,101422.94
2017-11-13T11:28:23.289Z,101419.31
2017-11-13T11:30:28.509Z,101421.51
2017-11-13T11:32:37.373Z,101423.28
2017-11-13T11:34:46.203Z,101428.17
2017-11-13T11:39:25.269Z,101426.72
2017-11-13T11:41:28.578Z,101425.78
2017-11-13T11:43:31.928Z,101423.09
2017-11-13T11:45:35.556Z,101432.45
2017-11-13T11:47:41.406Z,101426.13
2017-11-13T11:49:46.130Z,101427.91
2017-11-13T11:51:49.422Z,101440.90
2017-11-13T11:54:07.594Z,101437.19
2017-11-13T11:56:11.799Z,101432.52
2017-11-13T11:58:15.101Z,101437.84
2017-11-13T12:00:18.395Z,101443.16
2017-11-13T12:02:21.754Z,101435.80
2017-11-13T12:04:25.057Z,101432.51
2017-11-13T12:06:28.371Z,101430.66
2017-11-13T12:08:31.714Z,101442.19
2017-11-13T12:10:35.108Z,101441.09
2017-11-13T12:12:38.406Z,101445.15
2017-11-13T12:14:41.785Z,101446.42
2017-11-13T12:16:45.096Z,101449.12
2017-11-13T12:18:48.388Z,101454.94
2017-11-13T12:20:51.760Z,101462.94
2017-11-13T12:22:55.063Z,101461.70
2017-11-13T12:24:58.388Z,101470.19
2017-11-13T12:27:01.725Z,101468.45
2017-11-13T12:29:05.025Z,101465.33
2017-11-13T12:31:09.295Z,101464.05
2017-11-13T12:33:12.713Z,101462.70
2017-11-13T12:35:16.028Z,101470.47
2017-11-13T12:37:19.392Z,101471.81
2017-11-13T12:39:22.709Z,101467.84
2017-11-13T12:41:26.020Z,101475.95
2017-11-13T12:43:29.370Z,101477.91
2017-11-13T12:45:32.764Z,101473.02
2017-11-13T12:47:36.062Z,101472.17
2017-11-13T12:49:39.442Z,101481.63
2017-11-13T12:51:42.870Z,101480.78
2017-11-13T12:53:46.226Z,101479.51
2017-11-13T12:55:49.521Z,101480.78
2017-11-13T12:57:52.859Z,101476.30
2017-11-13T12:59:56.181Z,101474.45
2017-11-13T13:01:59.486Z,101474.88
2017-11-13T13:04:02.821Z,101477.06
2017-11-13T13:06:06.136Z,101476.73
2017-11-13T13:08:09.454Z,101481.20
2017-11-13T13:10:12.785Z,101480.35
2017-11-13T13:12:16.080Z,101480.47
2017-11-13T13:14:19.377Z,101475.88
2017-11-13T13:16:22.864Z,101476.30
2017-11-13T13:18:27.137Z,101479.12
2017-11-13T13:20:30.532Z,101483.17
2017-11-13T13:22:33.872Z,101483.17
2017-11-13T13:24:37.296Z,101485.52
2017-11-13T13:26:40.587Z,101487.30
2017-11-13T13:28:43.954Z,101488.23
2017-11-13T13:30:47.378Z,101490.50
2017-11-13T13:32:50.661Z,101493.63
2017-11-13T13:34:53.986Z,101493.70
2017-11-13T13:36:57.325Z,101497.77
2017-11-13T13:39:00.622Z,101504.51
2017-11-13T13:41:03.954Z,101502.31
2017-11-13T13:43:07.239Z,101497.42
2017-11-13T13:45:10.541Z,101503.74
2017-11-13T13:47:13.861Z,101495.56
2017-11-13T13:49:17.179Z,101501.39
2017-11-13T13:51:20.476Z,101504.59
2017-11-13T13:53:23.811Z,101505.44
2017-11-13T13:55:27.105Z,101511.84
2017-11-13T13:57:30.546Z,101509.69
2017-11-13T13:59:33.879Z,101510.92
2017-11-13T14:01:37.177Z,101514.66
2017-11-13T14:03:40.615Z,101518.28
2017-11-13T14:05:43.955Z,101518.79
2017-11-13T14:07:47.268Z,101523.34
2017-11-13T14:09:50.553Z,101523.42
2017-11-13T14:11:53.879Z,101529.25
2017-11-13T14:13:57.186Z,101530.68
2017-11-13T14:16:00.517Z,101531.72
2017-11-13T14:18:04.058Z,101538.55
2017-11-13T14:20:08.379Z,101535.92
2017-11-13T14:22:11.968Z,101540.91
2017-11-13T14:24:15.305Z,101544.53
2017-11-13T14:26:18.603Z,101544.11
2017-11-13T14:28:21.902Z,101545.99
2017-11-13T14:30:25.241Z,101547.42
2017-11-13T14:32:28.583Z,101550.97
2017-11-13T14:34:31.871Z,101552.40
2017-11-13T14:36:35.573Z,101549.70
2017-11-13T14:38:38.966Z,101553.33
2017-11-13T14:40:42.400Z,101564.12
2017-11-13T14:42:45.765Z,101554.76
2017-11-13T14:44:49.895Z,101563.70
2017-11-13T14:46:53.207Z,101559.73
2017-11-13T14:48:56.525Z,101564.63
2017-11-13T14:50:59.817Z,101564.71
2017-11-13T14:53:04.081Z,101565.14
2017-11-13T14:55:07.548Z,101569.30
2017-11-13T14:57:10.858Z,101572.08
2017-11-13T14:59:15.570Z,101568.95
2017-11-13T15:01:18.935Z,101568.53
2017-11-13T15:03:22.331Z,101579.75
2017-11-13T15:05:25.621Z,101577.55
2017-11-13T15:07:28.952Z,101583.88
2017-11-13T15:09:32.336Z,101589.28
2017-11-13T15:11:35.737Z,101587.16
2017-11-13T15:13:39.087Z,101585.42
2017-11-13T15:15:42.402Z,101585.00
2017-11-13T15:17:46.317Z,101590.91
2017-11-13T15:19:49.745Z,101598.58
2017-11-13T15:21:53.056Z,101600.93
2017-11-13T15:23:56.351Z,101604.98
2017-11-13T15:25:59.775Z,101605.91
2017-11-13T15:28:03.080Z,101614.09
2017-11-13T15:30:06.393Z,101620.95
2017-11-13T15:32:09.735Z,101616.55
2017-11-13T15:34:13.029Z,101627.85
2017-11-13T15:36:16.332Z,101627.85
2017-11-13T15:38:19.743Z,101631.91
2017-11-13T15:40:23.043Z,101641.01
2017-11-13T15:42:26.800Z,101640.19
2017-11-13T15:44:30.146Z,101638.42
2017-11-13T15:46:33.490Z,101643.81
2017-11-13T15:48:36.797Z,101645.25
2017-11-13T15:50:40.186Z,101657.82
2017-11-13T15:52:43.503Z,101647.02
2017-11-13T15:54:46.801Z,101651.57
2017-11-13T15:56:50.136Z,101654.27
2017-11-13T15:58:55.753Z,101656.97
2017-11-13T16:00:59.059Z,101654.70
2017-11-13T16:03:02.439Z,101654.27
2017-11-13T16:05:05.742Z,101655.55
2017-11-13T16:07:09.078Z,101657.39
2017-11-13T16:09:12.415Z,101663.14
2017-11-13T16:11:15.722Z,101663.64
2017-11-13T16:13:19.017Z,101668.54
2017-11-13T16:15:22.446Z,101681.11
2017-11-13T16:17:25.726Z,101682.03
2017-11-13T16:19:29.090Z,101681.50
2017-11-13T16:21:32.794Z,101680.58
2017-11-13T16:23:36.145Z,101682.35
2017-11-13T16:25:39.465Z,101683.20
2017-11-13T16:27:42.798Z,101680.50
2017-11-13T16:29:46.168Z,101681.42
2017-11-13T16:31:49.468Z,101684.05
2017-11-13T16:33:52.900Z,101686.75
2017-11-13T16:35:56.206Z,101687.67
2017-11-13T16:37:59.629Z,101696.62
2017-11-13T16:40:02.994Z,101697.55
2017-11-13T16:42:06.407Z,101697.55
2017-11-13T16:44:09.714Z,101696.97
2017-11-13T16:46:13.050Z,101699.67
2017-11-13T16:48:16.394Z,101702.80
2017-11-13T16:50:19.931Z,101702.69
2017-11-13T16:52:23.325Z,101700.41
2017-11-13T16:54:26.718Z,101698.21
2017-11-13T16:56:30.462Z,101698.63
2017-11-13T16:58:33.772Z,101702.19
2017-11-13T17:00:37.089Z,101704.46
2017-11-13T17:02:40.389Z,101700.83
2017-11-13T17:04:43.749Z,101700.83
2017-11-13T17:06:47.114Z,101712.56
2017-11-13T17:08:50.461Z,101716.95
2017-11-13T17:10:53.982Z,101726.14
2017-11-13T17:12:57.413Z,101730.61
2017-11-13T17:15:00.791Z,101737.97
2017-11-13T17:17:04.117Z,101741.17
2017-11-13T17:19:08.242Z,101747.15
2017-11-13T17:21:11.558Z,101755.86
2017-11-13T17:23:14.949Z,101757.79
2017-11-13T17:25:18.261Z,101759.72
2017-11-13T17:27:21.635Z,101764.38
2017-11-13T17:29:24.954Z,101762.59
2017-11-13T17:31:28.340Z,101762.75
2017-11-13T17:33:31.669Z,101768.66
2017-11-13T17:35:34.997Z,101770.58
2017-11-13T17:37:38.417Z,101767.11
2017-11-13T17:39:41.752Z,101771.77
2017-11-13T17:41:45.121Z,101769.64
2017-11-13T17:43:48.426Z,101782.72
2017-11-13T17:45:51.774Z,101784.75
2017-11-13T17:47:55.133Z,101787.09
2017-11-13T17:49:58.431Z,101788.52
2017-11-13T17:52:01.731Z,101785.51
2017-11-13T17:54:05.066Z,101796.80
2017-11-13T17:56:08.368Z,101795.03
2017-11-13T17:58:11.655Z,101796.03
2017-11-13T18:00:14.973Z,101798.38
2017-11-13T18:02:18.369Z,101794.87
2017-11-13T18:04:21.673Z,101799.41
2017-11-13T18:06:24.998Z,101804.89
2017-11-13T18:08:28.347Z,101802.69
2017-11-13T18:10:31.677Z,101805.46
2017-11-13T18:12:35.005Z,101805.14
2017-11-13T18:14:38.312Z,101803.37
2017-11-13T18:16:41.677Z,101801.59
2017-11-13T18:18:45.043Z,101808.42
2017-11-13T18:20:48.390Z,101800.40
2017-11-13T18:22:51.690Z,101807.64
2017-11-13T18:24:55.061Z,101800.51
2017-11-13T18:26:58.458Z,101812.23
2017-11-13T18:29:01.760Z,101810.45
2017-11-13T18:31:05.098Z,101807.83
2017-11-13T18:33:08.394Z,101807.91
2017-11-13T18:35:11.699Z,101815.15
2017-11-13T18:37:15.019Z,101817.95
2017-11-13T18:39:18.405Z,101814.48
2017-11-13T18:41:21.790Z,101819.38
2017-11-13T18:43:25.117Z,101820.80
2017-11-13T18:45:28.442Z,101820.88
2017-11-13T18:47:31.742Z,101823.16
2017-11-13T18:49:35.082Z,101820.95
2017-11-13T18:51:38.371Z,101821.06
2017-11-13T18:53:41.738Z,101828.73
2017-11-13T18:55:45.121Z,101820.28
2017-11-13T18:57:48.418Z,101821.70
2017-11-13T18:59:51.863Z,101827.61
2017-11-13T19:01:55.297Z,101816.42
2017-11-13T19:03:58.704Z,101821.39
2017-11-13T19:06:02.099Z,101824.16
2017-11-13T19:08:05.405Z,101822.89
2017-11-13T19:10:08.724Z,101830.98
2017-11-13T19:12:12.022Z,101826.52
2017-11-13T19:14:15.441Z,101817.25
2017-11-13T19:16:18.799Z,101823.07
2017-11-13T19:18:22.136Z,101830.39
2017-11-13T19:20:25.514Z,101834.44
2017-11-13T19:22:28.870Z,101831.81
2017-11-13T19:24:32.260Z,101830.97
2017-11-13T19:26:35.798Z,101837.28
2017-11-13T19:28:39.095Z,101837.28
2017-11-13T19:30:42.386Z,101844.14
2017-11-13T19:32:45.719Z,101842.86
2017-11-13T19:34:49.017Z,101853.66
2017-11-13T19:36:52.346Z,101855.50
2017-11-13T19:38:55.675Z,101850.60
2017-11-13T19:40:58.985Z,101858.38
2017-11-13T19:43:02.782Z,101853.48
2017-11-13T19:45:06.176Z,101858.03
2017-11-13T19:47:10.002Z,101857.60
2017-11-13T19:49:13.409Z,101856.25
2017-11-13T19:51:16.910Z,101862.57
2017-11-13T19:53:20.313Z,101857.67
2017-11-13T19:55:23.674Z,101859.95
2017-11-13T19:57:27.427Z,101857.75
2017-11-13T19:59:30.944Z,101861.48
2017-11-13T20:01:34.272Z,101859.28
2017-11-13T20:03:37.685Z,101866.02
2017-11-13T20:05:41.070Z,101862.41
2017-11-13T20:07:44.449Z,101866.95
2017-11-13T20:09:47.776Z,101866.09
2017-11-13T20:11:51.083Z,101875.11
2017-11-13T20:13:54.381Z,101877.88
2017-11-13T20:15:57.805Z,101876.96
2017-11-13T20:18:01.111Z,101880.58
2017-11-13T20:20:04.408Z,101879.34
2017-11-13T20:22:07.740Z,101879.84
2017-11-13T20:24:11.035Z,101886.58
2017-11-13T20:26:14.333Z,101890.20
2017-11-13T20:28:17.837Z,101883.95
2017-11-13T20:30:21.246Z,101889.85
2017-11-13T20:32:24.536Z,101884.03
2017-11-13T20:34:27.890Z,101889.92
2017-11-13T20:36:31.174Z,101894.89
2017-11-13T20:38:34.473Z,101893.05
2017-11-13T20:40:37.802Z,101895.92
2017-11-13T20:42:41.094Z,101895.92
2017-11-13T20:44:44.386Z,101903.16
2017-11-13T20:46:47.768Z,101904.09
2017-11-13T20:48:51.156Z,101905.94
2017-11-13T20:50:54.447Z,101909.56
2017-11-13T20:52:57.763Z,101910.91
2017-11-13T20:55:01.065Z,101915.88
2017-11-13T20:57:04.481Z,101917.65
2017-11-13T20:59:07.808Z,101919.07
2017-11-13T21:01:11.108Z,101924.57
2017-11-13T21:03:14.425Z,101922.38
2017-11-13T21:05:17.787Z,101918.83
2017-11-13T21:07:21.068Z,101923.30
2017-11-13T21:09:24.378Z,101926.06
2017-11-13T21:11:27.710Z,101925.64
2017-11-13T21:13:31.001Z,101933.30
2017-11-13T21:15:34.335Z,101928.34
2017-11-13T21:17:37.665Z,101929.75
2017-11-13T21:19:40.978Z,101932.45
2017-11-13T21:21:44.363Z,101938.80
2017-11-13T21:23:47.677Z,101943.77
2017-11-13T21:25:51.139Z,101943.77
2017-11-13T21:27:54.539Z,101945.20
2017-11-13T21:29:57.981Z,101939.80
2017-11-13T21:32:01.295Z,101941.64
2017-11-13T21:34:04.582Z,101943.92
2017-11-13T21:36:08.002Z,101946.62
2017-11-13T21:38:11.351Z,101941.30
2017-11-13T21:40:14.697Z,101943.06
2017-11-13T21:42:18.012Z,101947.19
2017-11-13T21:44:21.305Z,101946.37
2017-11-13T21:46:24.637Z,101943.74
2017-11-13T21:48:27.984Z,101951.34
2017-11-13T21:50:31.374Z,101944.66
2017-11-13T21:52:34.670Z,101950.91
2017-11-13T21:54:37.996Z,101949.20
2017-11-13T21:56:41.305Z,101945.59
2017-11-13T21:58:44.640Z,101947.51
2017-11-13T22:00:48.008Z,101950.62
2017-11-13T22:02:51.362Z,101960.17
2017-11-13T22:04:54.651Z,101960.56
2017-11-13T22:06:57.994Z,101957.87
2017-11-13T22:09:01.292Z,101957.05
2017-11-13T22:11:04.584Z,101959.33
2017-11-13T22:13:07.905Z,101955.34
2017-11-13T22:15:11.261Z,101959.39
2017-11-13T22:17:14.558Z,101962.59
2017-11-13T22:19:17.878Z,101959.82
2017-11-13T22:21:21.177Z,101959.89
2017-11-13T22:23:24.513Z,101955.92
2017-11-13T22:25:27.904Z,101957.62
2017-11-13T22:27:31.196Z,101959.53
2017-11-13T22:29:34.490Z,101966.70
2017-11-13T22:31:37.875Z,101962.23
2017-11-13T22:33:41.173Z,101963.16
2017-11-13T22:35:44.483Z,101960.98
2017-11-13T22:37:47.818Z,101967.30
2017-11-13T22:39:51.112Z,101961.06
2017-11-13T22:41:54.426Z,101963.27
2017-11-13T22:43:57.742Z,101966.03
2017-11-13T22:46:01.895Z,101966.53
2017-11-13T22:48:05.182Z,101966.10
2017-11-13T22:50:08.672Z,101973.34
2017-11-13T22:52:12.022Z,101969.30
2017-11-13T22:54:15.305Z,101966.17
2017-11-13T22:56:18.647Z,101976.04
2017-11-13T22:58:21.946Z,101974.37
2017-11-13T23:00:25.241Z,101971.24
2017-11-13T23:02:28.650Z,101973.45
2017-11-13T23:04:32.047Z,101970.81
2017-11-13T23:06:35.338Z,101980.75
2017-11-13T23:08:38.656Z,101981.61
2017-11-13T23:10:41.954Z,101972.23
2017-11-13T23:12:45.252Z,101978.98
2017-11-13T23:14:48.573Z,101975.50
2017-11-13T23:16:51.878Z,101982.17
2017-11-13T23:18:55.173Z,101984.94
2017-11-13T23:20:58.507Z,101980.47
2017-11-13T23:23:01.804Z,101983.17
2017-11-13T23:25:05.108Z,101985.86
2017-11-13T23:27:08.427Z,101980.47
2017-11-13T23:29:11.825Z,101982.34
2017-11-13T23:31:15.131Z,101977.88